Aviation Digital Data Service (ADDS)

Output produced by METARs form (1825 UTC 22 November 2017)
found at http://www.aviationweather.gov/adds/metars/
 
TISX 221720Z 2218/2318 11011KT P6SM SCT035 
     FM222330 07004KT P6SM VCSH FEW025 SCT040 
     FM231450 10012KT P6SM SCT030 SCT060 AMD NOT SKED
       
TIST 221720Z 2218/2318 13012KT P6SM SCT035 
     FM222330 09004KT P6SM VCSH FEW025 SCT040 
     FM231450 11012KT P6SM SCT030 SCT060 AMD NOT SKED